Time;durP1;ratioP1;P1;durP2;ratioP2;P2;SDS_P1;SDS_P2;PMS_P1;PMS_P2;Temp;Humidity;BMP_temperature;BMP_pressure;BME280_temperature;BME280_humidity;BME280_pressure;Samples;Min_cycle;Max_cycle;Signal;HPM_P1;HPM_P2
2021/04/11 00:01:18;;;;;;;6.83;3.97;;;;;;;;;;5083301;28;20432;-49
2021/04/11 00:04:03;;;;;;;5.13;3.87;;;;;;;;;;5074955;28;20441;-53
2021/04/11 00:06:30;;;;;;;8.90;4.10;;;;;;;;;;5075206;28;20436;-53
2021/04/11 00:08:56;;;;;;;4.90;3.27;;;;;;;;;;5075405;28;20495;-54
2021/04/11 00:11:36;;;;;;;7.50;4.00;;;;;;;;;;5075072;28;20448;-52
2021/04/11 00:14:05;;;;;;;5.97;3.47;;;;;;;;;;5086712;28;20487;-58
2021/04/11 00:16:37;;;;;;;12.83;3.50;;;;;;;;;;5095178;28;20452;-50
2021/04/11 00:19:04;;;;;;;7.20;2.93;;;;;;;;;;5094794;28;20460;-52
2021/04/11 00:21:32;;;;;;;8.27;3.20;;;;;;;;;;5083108;28;20474;-57
2021/04/11 00:24:06;;;;;;;4.87;3.67;;;;;;;;;;5074871;28;20460;-56
2021/04/11 00:26:33;;;;;;;5.53;3.60;;;;;;;;;;5074343;28;20449;-53
2021/04/11 00:29:00;;;;;;;5.70;3.30;;;;;;;;;;5075641;28;20730;-58
2021/04/11 00:31:35;;;;;;;8.43;4.17;;;;;;;;;;5082433;28;20437;-54
2021/04/11 00:34:02;;;;;;;6.00;3.67;;;;;;;;;;5115607;28;20454;-55
2021/04/11 00:36:29;;;;;;;17.23;11.00;;;;;;;;;;5099440;28;20453;-52
2021/04/11 00:39:00;;;;;;;26.60;21.47;;;;;;;;;;5115625;28;20451;-53
2021/04/11 00:41:29;;;;;;;10.80;7.50;;;;;;;;;;5110932;28;20474;-52
2021/04/11 00:43:56;;;;;;;10.10;6.50;;;;;;;;;;5098744;28;20444;-54
2021/04/11 00:46:34;;;;;;;7.90;4.40;;;;;;;;;;5099353;28;20445;-49
2021/04/11 00:49:02;;;;;;;7.75;4.18;;;;;;;;;;5098790;28;20472;-54
2021/04/11 00:51:30;;;;;;;6.90;2.90;;;;;;;;;;5098944;28;20210;-50
2021/04/11 00:53:57;;;;;;;9.27;3.70;;;;;;;;;;5108088;28;20459;-52
2021/04/11 00:56:24;;;;;;;8.03;3.30;;;;;;;;;;5117635;28;20485;-54
2021/04/11 00:58:58;;;;;;;8.53;3.90;;;;;;;;;;5099654;28;20436;-54
2021/04/11 01:01:25;;;;;;;5.47;3.00;;;;;;;;;;5099149;28;20450;-53
2021/04/11 01:03:52;;;;;;;7.47;4.47;;;;;;;;;;5099810;28;20452;-55
2021/04/11 01:06:23;;;;;;;9.20;3.50;;;;;;;;;;5099531;28;20444;-58
2021/04/11 01:08:52;;;;;;;7.57;3.47;;;;;;;;;;5098681;28;20509;-53
2021/04/11 01:11:20;;;;;;;5.10;3.70;;;;;;;;;;5098976;28;20440;-56
2021/04/11 01:13:48;;;;;;;5.80;3.67;;;;;;;;;;5098424;28;20586;-59
2021/04/11 01:16:16;;;;;;;4.50;2.77;;;;;;;;;;5098899;28;20922;-55
2021/04/11 01:18:49;;;;;;;5.47;3.40;;;;;;;;;;5099216;28;20444;-54
2021/04/11 01:21:21;;;;;;;5.20;3.30;;;;;;;;;;5098133;28;20444;-55
2021/04/11 01:23:55;;;;;;;5.23;3.87;;;;;;;;;;5098163;28;20436;-54
2021/04/11 01:26:25;;;;;;;6.17;3.47;;;;;;;;;;5098726;28;20494;-48
2021/04/11 01:28:52;;;;;;;6.13;3.93;;;;;;;;;;5098950;28;20432;-54
2021/04/11 01:31:20;;;;;;;5.50;3.60;;;;;;;;;;5097958;28;20470;-53
2021/04/11 01:33:51;;;;;;;5.37;4.00;;;;;;;;;;5098089;28;20501;-57
2021/04/11 01:36:20;;;;;;;6.43;3.97;;;;;;;;;;5098205;28;20471;-53
2021/04/11 01:38:47;;;;;;;5.70;3.77;;;;;;;;;;5098467;28;20459;-55
2021/04/11 01:41:19;;;;;;;6.50;3.50;;;;;;;;;;5097392;28;20428;-56
2021/04/11 01:43:48;;;;;;;5.80;3.97;;;;;;;;;;5098123;28;20543;-56
2021/04/11 01:46:16;;;;;;;5.47;3.60;;;;;;;;;;5098430;28;20444;-54
2021/04/11 01:49:16;;;;;;;9.80;3.93;;;;;;;;;;5097179;28;20905;-55
2021/04/11 01:51:44;;;;;;;4.70;3.70;;;;;;;;;;5077024;28;20520;-49
2021/04/11 01:54:14;;;;;;;5.33;3.90;;;;;;;;;;5075579;28;20441;-52
2021/04/11 01:59:45;;;;;;;5.87;3.90;;;;;;;;;;5093954;28;20474;-51
2021/04/11 02:02:13;;;;;;;6.70;3.50;;;;;;;;;;5097414;28;20469;-57
2021/04/11 02:04:39;;;;;;;5.73;3.63;;;;;;;;;;5097998;28;20439;-45
2021/04/11 02:07:09;;;;;;;6.33;4.10;;;;;;;;;;5098061;28;20448;-54
2021/04/11 02:09:46;;;;;;;4.57;3.50;;;;;;;;;;5096973;28;20537;-52
2021/04/11 02:12:13;;;;;;;6.33;3.33;;;;;;;;;;5084412;28;20563;-52
2021/04/11 02:14:41;;;;;;;4.60;4.07;;;;;;;;;;5089660;28;20444;-57
2021/04/11 02:17:10;;;;;;;5.40;4.00;;;;;;;;;;5097079;28;20460;-54
2021/04/11 02:19:42;;;;;;;5.83;3.90;;;;;;;;;;5097491;28;20467;-54
2021/04/11 02:22:13;;;;;;;5.60;4.33;;;;;;;;;;5078743;28;20453;-52
2021/04/11 02:24:41;;;;;;;5.43;3.63;;;;;;;;;;5077391;28;20467;-47
2021/04/11 02:27:09;;;;;;;7.77;3.60;;;;;;;;;;5076978;28;20445;-56
2021/04/11 02:29:35;;;;;;;7.03;4.40;;;;;;;;;;5077106;28;20562;-56
2021/04/11 02:32:06;;;;;;;6.20;4.07;;;;;;;;;;5077012;28;20541;-54
2021/04/11 02:34:36;;;;;;;6.87;4.20;;;;;;;;;;5076640;28;20471;-52
2021/04/11 02:37:05;;;;;;;6.70;4.27;;;;;;;;;;5092571;28;20436;-56
2021/04/11 02:39:35;;;;;;;7.27;3.87;;;;;;;;;;5096415;28;20445;-52
2021/04/11 02:42:05;;;;;;;6.30;4.80;;;;;;;;;;5096534;28;20448;-53
2021/04/11 02:44:34;;;;;;;8.97;5.00;;;;;;;;;;5096821;28;20456;-51
2021/04/11 02:47:12;;;;;;;7.47;4.30;;;;;;;;;;5096884;28;20436;-58
2021/04/11 02:49:47;;;;;;;5.73;4.30;;;;;;;;;;5116703;28;20498;-56
2021/04/11 02:52:18;;;;;;;7.93;4.50;;;;;;;;;;5115710;28;20451;-53
2021/04/11 02:55:17;;;;;;;5.10;4.40;;;;;;;;;;5117397;28;20435;-54
2021/04/11 02:57:44;;;;;;;10.33;4.87;;;;;;;;;;5117033;28;20493;-56
2021/04/11 03:00:12;;;;;;;9.93;4.53;;;;;;;;;;5116744;28;20447;-46
2021/04/11 03:02:48;;;;;;;5.30;4.07;;;;;;;;;;5117026;28;20459;-52
2021/04/11 03:05:17;;;;;;;5.00;4.20;;;;;;;;;;5117268;28;20469;-55
2021/04/11 03:07:45;;;;;;;5.50;4.27;;;;;;;;;;5116660;28;20447;-57
2021/04/11 03:10:16;;;;;;;6.07;4.63;;;;;;;;;;5117075;28;20498;-56
2021/04/11 03:12:43;;;;;;;6.67;4.90;;;;;;;;;;5116599;28;20439;-55
2021/04/11 03:15:12;;;;;;;7.93;4.60;;;;;;;;;;5117088;28;20423;-51
2021/04/11 03:17:51;;;;;;;7.50;5.00;;;;;;;;;;5117613;28;20439;-53
2021/04/11 03:20:24;;;;;;;7.30;4.67;;;;;;;;;;5116765;28;20439;-54
2021/04/11 03:22:52;;;;;;;7.57;5.27;;;;;;;;;;5116631;28;20485;-55
2021/04/11 03:25:28;;;;;;;10.40;6.37;;;;;;;;;;5116295;28;20455;-58
2021/04/11 03:28:00;;;;;;;7.10;4.77;;;;;;;;;;5116688;28;20520;-54
2021/04/11 03:30:29;;;;;;;10.67;7.20;;;;;;;;;;5076302;28;20457;-53
2021/04/11 03:33:30;;;;;;;9.53;7.90;;;;;;;;;;5075956;28;20568;-53
2021/04/11 03:35:58;;;;;;;9.77;8.20;;;;;;;;;;5075607;28;20444;-45
2021/04/11 03:38:27;;;;;;;10.10;6.63;;;;;;;;;;5075953;28;20626;-52
2021/04/11 03:40:57;;;;;;;9.80;7.10;;;;;;;;;;5076081;28;20460;-52
2021/04/11 03:43:25;;;;;;;9.63;7.50;;;;;;;;;;5075557;28;20447;-52
2021/04/11 03:45:53;;;;;;;9.40;7.17;;;;;;;;;;5075717;28;20453;-53
2021/04/11 03:48:35;;;;;;;9.80;7.93;;;;;;;;;;5074690;28;20452;-57
2021/04/11 03:51:06;;;;;;;10.20;8.43;;;;;;;;;;5075250;28;20497;-55
2021/04/11 03:53:36;;;;;;;11.20;9.60;;;;;;;;;;5087711;28;20453;-55
2021/04/11 03:56:22;;;;;;;14.70;10.85;;;;;;;;;;5095141;28;20227;-55
2021/04/11 03:58:51;;;;;;;13.73;10.63;;;;;;;;;;5083567;28;20230;-57
2021/04/11 04:01:20;;;;;;;13.10;10.95;;;;;;;;;;5075043;28;20194;-55
2021/04/11 04:03:48;;;;;;;13.32;10.77;;;;;;;;;;5074871;28;20229;-52
2021/04/11 04:06:21;;;;;;;14.63;11.77;;;;;;;;;;5074977;28;20197;-52
2021/04/11 04:08:50;;;;;;;17.02;12.20;;;;;;;;;;5075158;28;20203;-48
2021/04/11 04:11:23;;;;;;;16.33;12.23;;;;;;;;;;5075283;28;20194;-51
2021/04/11 04:13:57;;;;;;;15.02;11.48;;;;;;;;;;5074725;28;20237;-49
2021/04/11 04:16:28;;;;;;;15.00;11.57;;;;;;;;;;5075041;28;20213;-47
2021/04/11 04:19:14;;;;;;;14.90;12.02;;;;;;;;;;5065671;28;20202;-47
2021/04/11 04:21:55;;;;;;;16.45;12.35;;;;;;;;;;5062420;28;20186;-52
2021/04/11 04:24:37;;;;;;;15.20;11.80;;;;;;;;;;5063130;28;20207;-52
2021/04/11 04:27:12;;;;;;;19.17;14.98;;;;;;;;;;5073400;28;20194;-54
2021/04/11 04:32:55;;;;;;;14.75;11.15;;;;;;;;;;5056072;28;20271;-53
2021/04/11 04:35:27;;;;;;;13.15;9.85;;;;;;;;;;5071996;28;20202;-57
2021/04/11 04:38:15;;;;;;;11.73;9.27;;;;;;;;;;5076064;28;20191;-59
2021/04/11 04:40:46;;;;;;;10.68;8.75;;;;;;;;;;5075306;28;20211;-47
2021/04/11 04:43:17;;;;;;;10.48;8.02;;;;;;;;;;5074902;28;20237;-49
2021/04/11 04:46:05;;;;;;;9.75;7.97;;;;;;;;;;5073112;28;20205;-58
2021/04/11 04:48:33;;;;;;;9.52;7.28;;;;;;;;;;5090819;28;20281;-56
2021/04/11 04:51:03;;;;;;;9.95;8.07;;;;;;;;;;5095175;28;20233;-51
2021/04/11 04:53:40;;;;;;;8.18;6.22;;;;;;;;;;5095338;28;20216;-52
2021/04/11 04:56:08;;;;;;;7.93;6.13;;;;;;;;;;5093148;28;20241;-53
2021/04/11 04:58:38;;;;;;;8.18;6.00;;;;;;;;;;5095232;28;20206;-57
2021/04/11 05:01:15;;;;;;;7.38;5.75;;;;;;;;;;5094656;28;20209;-53
2021/04/11 05:03:44;;;;;;;7.53;5.95;;;;;;;;;;5094411;28;20206;-55
2021/04/11 05:06:13;;;;;;;7.68;6.28;;;;;;;;;;5086565;28;20202;-49
2021/04/11 05:09:02;;;;;;;8.63;6.38;;;;;;;;;;5094756;28;20210;-49
2021/04/11 05:11:31;;;;;;;6.38;5.30;;;;;;;;;;5094892;28;20198;-54
2021/04/11 05:14:02;;;;;;;6.50;5.25;;;;;;;;;;5094146;28;20217;-55
2021/04/11 05:16:37;;;;;;;5.90;5.07;;;;;;;;;;5097566;28;20206;-53
2021/04/11 05:19:07;;;;;;;14.23;6.03;;;;;;;;;;5098199;28;20202;-55
2021/04/11 05:21:36;;;;;;;7.80;5.80;;;;;;;;;;5097603;28;20210;-51
2021/04/11 05:24:06;;;;;;;6.63;5.35;;;;;;;;;;5097991;28;20392;-53
2021/04/11 05:26:36;;;;;;;7.43;5.03;;;;;;;;;;5097832;28;20213;-56
2021/04/11 05:29:07;;;;;;;5.93;4.70;;;;;;;;;;5098162;28;20225;-53
2021/04/11 05:31:35;;;;;;;6.35;5.25;;;;;;;;;;5098201;28;20206;-50
2021/04/11 05:34:02;;;;;;;8.68;6.45;;;;;;;;;;5097760;28;20217;-56
2021/04/11 05:36:36;;;;;;;6.88;6.07;;;;;;;;;;5098288;28;20190;-52
2021/04/11 05:39:24;;;;;;;8.43;6.78;;;;;;;;;;5097899;28;20249;-47
2021/04/11 05:41:55;;;;;;;7.70;6.45;;;;;;;;;;5097456;28;20206;-50
2021/04/11 05:44:26;;;;;;;7.10;4.85;;;;;;;;;;5097761;28;20201;-52
2021/04/11 05:46:56;;;;;;;7.72;6.55;;;;;;;;;;5097058;28;20198;-49
2021/04/11 05:49:27;;;;;;;7.93;6.47;;;;;;;;;;5097482;28;20222;-52
2021/04/11 05:51:57;;;;;;;8.98;6.82;;;;;;;;;;5097359;28;20533;-54
2021/04/11 05:54:39;;;;;;;8.60;6.45;;;;;;;;;;5097272;28;20186;-53
2021/04/11 05:57:08;;;;;;;8.75;7.10;;;;;;;;;;5076820;28;20211;-44
2021/04/11 05:59:39;;;;;;;8.48;6.80;;;;;;;;;;5076817;28;20213;-56
2021/04/11 06:02:08;;;;;;;9.50;6.80;;;;;;;;;;5077348;28;20298;-54
2021/04/11 06:04:37;;;;;;;8.82;7.57;;;;;;;;;;5077082;28;20218;-51
2021/04/11 06:07:08;;;;;;;9.65;7.75;;;;;;;;;;5076982;28;20210;-52
2021/04/11 06:09:37;;;;;;;9.07;7.25;;;;;;;;;;5076450;28;20219;-50
2021/04/11 06:12:06;;;;;;;11.73;8.15;;;;;;;;;;5076274;28;20175;-54
2021/04/11 06:14:35;;;;;;;11.30;8.52;;;;;;;;;;5077185;28;20241;-52
2021/04/11 06:17:10;;;;;;;13.98;10.20;;;;;;;;;;5076981;28;20203;-58
2021/04/11 06:19:39;;;;;;;14.55;10.32;;;;;;;;;;5076818;28;20190;-55
2021/04/11 06:22:10;;;;;;;16.83;11.30;;;;;;;;;;5077664;28;20202;-52
2021/04/11 06:25:02;;;;;;;19.10;13.05;;;;;;;;;;5076752;28;20191;-52
2021/04/11 06:27:35;;;;;;;15.90;12.35;;;;;;;;;;5072571;28;20206;-55
2021/04/11 06:30:05;;;;;;;16.40;12.10;;;;;;;;;;5090621;28;20222;-48
2021/04/11 06:32:55;;;;;;;20.75;14.90;;;;;;;;;;5088144;28;20193;-53
2021/04/11 06:35:25;;;;;;;23.55;16.92;;;;;;;;;;5074562;28;20206;-58
2021/04/11 06:37:54;;;;;;;20.10;14.95;;;;;;;;;;5076621;28;20245;-53
2021/04/11 06:40:28;;;;;;;21.10;14.55;;;;;;;;;;5076713;28;20187;-51
2021/04/11 06:43:00;;;;;;;21.95;14.82;;;;;;;;;;5076184;28;20229;-51
2021/04/11 06:45:36;;;;;;;26.80;18.88;;;;;;;;;;5076354;28;20203;-47
2021/04/11 06:48:13;;;;;;;26.08;17.67;;;;;;;;;;5088645;28;20189;-50
2021/04/11 06:50:51;;;;;;;27.63;17.98;;;;;;;;;;5061830;28;20226;-57
2021/04/11 06:53:27;;;;;;;25.50;17.95;;;;;;;;;;5089396;28;20212;-58
2021/04/11 06:56:19;;;;;;;22.67;15.65;;;;;;;;;;5095641;28;20240;-54
2021/04/11 06:58:51;;;;;;;22.17;16.02;;;;;;;;;;5095347;28;20266;-53
2021/04/11 07:01:34;;;;;;;21.92;12.85;;;;;;;;;;5091595;28;20388;-56
2021/04/11 07:04:30;;;;;;;16.50;13.05;;;;;;;;;;5096084;28;20220;-58
2021/04/11 07:07:16;;;;;;;19.58;12.68;;;;;;;;;;5094404;28;20217;-54
2021/04/11 07:09:51;;;;;;;14.18;9.93;;;;;;;;;;5096143;28;20278;-53
2021/04/11 07:12:44;;;;;;;17.42;11.50;;;;;;;;;;5095747;28;20216;-55
2021/04/11 07:15:44;;;;;;;14.95;10.77;;;;;;;;;;5095698;28;20213;-50
2021/04/11 07:18:42;;;;;;;23.15;15.70;;;;;;;;;;5090105;28;20202;-55
2021/04/11 07:24:23;;;;;;;20.20;13.95;;;;;;;;;;5084534;28;20232;-54
2021/04/11 07:26:54;;;;;;;14.50;11.77;;;;;;;;;;5095910;28;20190;-53
2021/04/11 07:29:29;;;;;;;14.93;9.98;;;;;;;;;;5094366;28;20205;-53
2021/04/11 07:32:08;;;;;;;11.50;8.77;;;;;;;;;;5093637;28;20296;-51
2021/04/11 07:34:48;;;;;;;10.05;7.10;;;;;;;;;;5091891;28;20216;-53
2021/04/11 07:37:33;;;;;;;10.85;6.78;;;;;;;;;;5088565;28;20253;-57
2021/04/11 07:40:08;;;;;;;8.50;5.75;;;;;;;;;;5093156;28;20213;-55
2021/04/11 07:42:54;;;;;;;7.90;5.93;;;;;;;;;;5080148;28;20201;-50
2021/04/11 07:45:36;;;;;;;7.95;6.25;;;;;;;;;;5095574;28;20202;-49
2021/04/11 07:48:30;;;;;;;6.28;5.68;;;;;;;;;;5094450;28;20205;-53
2021/04/11 07:54:01;;;;;;;6.97;5.15;;;;;;;;;;5075404;28;20197;-46
2021/04/11 07:56:32;;;;;;;10.13;6.15;;;;;;;;;;5075516;28;20183;-57
2021/04/11 07:59:19;;;;;;;8.02;5.40;;;;;;;;;;5082298;28;20262;-50
2021/04/11 08:01:55;;;;;;;6.75;4.30;;;;;;;;;;5095506;28;20202;-52
2021/04/11 08:04:45;;;;;;;9.50;6.15;;;;;;;;;;5095524;28;20240;-55
2021/04/11 08:07:27;;;;;;;10.90;7.13;;;;;;;;;;5096395;28;20214;-55
2021/04/11 08:10:14;;;;;;;9.30;6.30;;;;;;;;;;5052090;28;20234;-53
2021/04/11 08:13:02;;;;;;;10.68;6.68;;;;;;;;;;5095359;28;20209;-53
2021/04/11 08:15:31;;;;;;;9.05;6.60;;;;;;;;;;5088693;28;20206;-55
2021/04/11 08:18:30;;;;;;;9.77;6.93;;;;;;;;;;5075025;28;20233;-51
2021/04/11 08:21:17;;;;;;;10.80;7.15;;;;;;;;;;5085339;28;20255;-54
2021/04/11 08:24:02;;;;;;;12.07;8.07;;;;;;;;;;5095407;28;20212;-53
2021/04/11 08:26:42;;;;;;;9.38;7.45;;;;;;;;;;5094243;28;20224;-55
2021/04/11 08:29:15;;;;;;;11.73;7.80;;;;;;;;;;5094984;28;20190;-53
2021/04/11 08:31:54;;;;;;;7.93;6.28;;;;;;;;;;5094876;28;20237;-56
2021/04/11 08:34:47;;;;;;;8.90;6.00;;;;;;;;;;5094669;28;20565;-55
2021/04/11 08:37:38;;;;;;;10.27;5.68;;;;;;;;;;5095247;28;20224;-54
2021/04/11 08:40:31;;;;;;;8.60;5.97;;;;;;;;;;5075202;28;20244;-47
2021/04/11 08:43:08;;;;;;;9.65;5.93;;;;;;;;;;5095321;28;20197;-51
2021/04/11 08:45:44;;;;;;;7.18;5.30;;;;;;;;;;5094548;28;20201;-47
2021/04/11 08:48:45;;;;;;;7.13;5.25;;;;;;;;;;5094695;28;20210;-54
2021/04/11 08:51:34;;;;;;;8.43;4.80;;;;;;;;;;5016686;28;20224;-59
2021/04/11 08:57:09;;;;;;;4.97;4.05;;;;;;;;;;5086218;28;20336;-54
2021/04/11 08:59:44;;;;;;;5.40;3.70;;;;;;;;;;5098224;28;20209;-54
2021/04/11 09:02:32;;;;;;;4.90;3.60;;;;;;;;;;5092035;28;20206;-50
2021/04/11 09:05:03;;;;;;;6.35;4.30;;;;;;;;;;5085809;28;20232;-56
2021/04/11 09:07:38;;;;;;;8.05;4.60;;;;;;;;;;5097955;28;20204;-51
2021/04/11 09:10:12;;;;;;;4.00;3.03;;;;;;;;;;5098081;28;20213;-52
2021/04/11 09:12:55;;;;;;;4.95;3.50;;;;;;;;;;5097897;28;20237;-55
2021/04/11 09:15:25;;;;;;;4.88;3.47;;;;;;;;;;5097962;28;20206;-55
2021/04/11 09:21:03;;;;;;;5.45;3.30;;;;;;;;;;5097950;28;20243;-56
2021/04/11 09:23:36;;;;;;;5.35;3.47;;;;;;;;;;5097245;28;20190;-52
2021/04/11 09:26:11;;;;;;;7.32;4.28;;;;;;;;;;5096044;28;20228;-51
2021/04/11 09:28:47;;;;;;;8.07;4.95;;;;;;;;;;5086438;28;20277;-55
2021/04/11 09:31:33;;;;;;;5.65;4.00;;;;;;;;;;5097877;28;20217;-45
2021/04/11 09:34:16;;;;;;;5.82;4.20;;;;;;;;;;5097268;28;20210;-47
2021/04/11 09:36:50;;;;;;;7.15;5.30;;;;;;;;;;5096807;28;20210;-54
2021/04/11 09:39:35;;;;;;;7.30;4.82;;;;;;;;;;5097674;28;20206;-52
2021/04/11 09:45:13;;;;;;;5.65;4.55;;;;;;;;;;5097189;28;20241;-54
2021/04/11 09:47:52;;;;;;;6.63;4.35;;;;;;;;;;5096937;28;20189;-54
2021/04/11 09:50:43;;;;;;;5.90;3.97;;;;;;;;;;5097024;28;20237;-52
2021/04/11 09:53:24;;;;;;;7.05;5.53;;;;;;;;;;5095103;28;20257;-51
2021/04/11 09:55:58;;;;;;;5.40;4.70;;;;;;;;;;5084866;28;20201;-56
2021/04/11 09:58:39;;;;;;;6.43;4.20;;;;;;;;;;5097515;28;20209;-59
2021/04/11 10:01:10;;;;;;;7.20;5.10;;;;;;;;;;5093987;28;20208;-52
2021/04/11 10:03:53;;;;;;;6.30;4.20;;;;;;;;;;5084145;28;20218;-50
2021/04/11 10:06:23;;;;;;;6.28;5.60;;;;;;;;;;5066929;28;20202;-57
2021/04/11 10:09:13;;;;;;;6.18;5.18;;;;;;;;;;5075842;28;20203;-46
2021/04/11 10:11:55;;;;;;;6.85;5.03;;;;;;;;;;5077275;28;20290;-56
2021/04/11 10:14:26;;;;;;;6.75;5.10;;;;;;;;;;5075149;28;20191;-49
2021/04/11 10:17:09;;;;;;;7.30;6.15;;;;;;;;;;5063082;28;20233;-44
2021/04/11 10:19:43;;;;;;;8.90;6.68;;;;;;;;;;5057651;28;20207;-54
2021/04/11 10:22:31;;;;;;;10.48;7.75;;;;;;;;;;5056833;28;20216;-55
2021/04/11 10:25:05;;;;;;;8.43;7.22;;;;;;;;;;5056930;28;20211;-51
2021/04/11 10:27:51;;;;;;;8.07;6.25;;;;;;;;;;5056457;28;20244;-51
2021/04/11 10:30:22;;;;;;;7.43;4.90;;;;;;;;;;5056343;28;20230;-55
2021/04/11 10:32:51;;;;;;;6.95;5.32;;;;;;;;;;5056611;28;20235;-49
2021/04/11 10:35:22;;;;;;;7.72;4.18;;;;;;;;;;5056110;28;20191;-54
2021/04/11 10:37:53;;;;;;;6.38;5.32;;;;;;;;;;5055682;28;20222;-49
2021/04/11 10:40:37;;;;;;;8.43;5.35;;;;;;;;;;5056117;28;20191;-52
2021/04/11 10:43:12;;;;;;;5.05;3.83;;;;;;;;;;5055829;28;20207;-55
2021/04/11 10:45:47;;;;;;;6.68;4.82;;;;;;;;;;5056483;28;20201;-54
2021/04/11 10:48:17;;;;;;;5.30;4.20;;;;;;;;;;5075972;28;20202;-52
2021/04/11 10:50:46;;;;;;;6.15;4.25;;;;;;;;;;5075969;28;20215;-53
2021/04/11 10:56:38;;;;;;;3.13;2.03;;;;;;;;;;5075428;28;20189;-46
2021/04/11 10:59:15;;;;;;;4.63;2.45;;;;;;;;;;5060279;28;20324;-53
2021/04/11 11:02:10;;;;;;;4.75;2.42;;;;;;;;;;5062382;28;20190;-55
2021/04/11 11:04:48;;;;;;;5.68;4.03;;;;;;;;;;5039983;28;20241;-55
2021/04/11 11:07:34;;;;;;;5.13;4.13;;;;;;;;;;5075545;28;20214;-51
2021/04/11 11:10:07;;;;;;;12.95;7.72;;;;;;;;;;5075691;28;20237;-51
2021/04/11 11:12:55;;;;;;;11.95;8.60;;;;;;;;;;5074752;28;20268;-51
2021/04/11 11:15:40;;;;;;;10.35;8.50;;;;;;;;;;5074667;28;20202;-53
2021/04/11 11:18:22;;;;;;;9.43;8.02;;;;;;;;;;5072253;28;20253;-53
2021/04/11 11:20:59;;;;;;;12.65;8.63;;;;;;;;;;5074774;28;20195;-50
2021/04/11 11:23:35;;;;;;;10.40;8.85;;;;;;;;;;5055049;28;20214;-47
2021/04/11 11:26:34;;;;;;;12.68;9.85;;;;;;;;;;5074441;28;20210;-49
2021/04/11 11:29:16;;;;;;;14.65;12.32;;;;;;;;;;5075390;28;20210;-46
2021/04/11 11:31:55;;;;;;;13.15;10.60;;;;;;;;;;5068580;28;20249;-45
2021/04/11 11:34:28;;;;;;;15.38;11.95;;;;;;;;;;5075255;28;20194;-47
2021/04/11 11:37:07;;;;;;;17.95;12.43;;;;;;;;;;5074635;28;20202;-49
2021/04/11 11:39:39;;;;;;;14.27;10.32;;;;;;;;;;5054685;28;20358;-46
2021/04/11 11:42:12;;;;;;;12.23;9.63;;;;;;;;;;5061096;28;20230;-54
2021/04/11 11:44:57;;;;;;;18.50;11.90;;;;;;;;;;5074561;28;20195;-52
2021/04/11 11:47:28;;;;;;;13.27;10.07;;;;;;;;;;5073226;28;20198;-51
2021/04/11 11:50:00;;;;;;;14.85;12.00;;;;;;;;;;5075760;28;20218;-52
2021/04/11 11:52:46;;;;;;;18.92;14.15;;;;;;;;;;5075819;28;20209;-47
2021/04/11 11:55:17;;;;;;;22.80;14.77;;;;;;;;;;5072430;28;20206;-56
2021/04/11 11:58:12;;;;;;;18.40;12.02;;;;;;;;;;5065112;28;20242;-53
2021/04/11 12:00:56;;;;;;;16.90;11.27;;;;;;;;;;5076055;28;20574;-58
2021/04/11 12:03:26;;;;;;;15.82;12.32;;;;;;;;;;5075214;28;20223;-54
2021/04/11 12:06:21;;;;;;;16.17;12.23;;;;;;;;;;5076163;28;20201;-53
2021/04/11 12:08:52;;;;;;;12.43;9.70;;;;;;;;;;5069809;28;20195;-46
2021/04/11 12:11:21;;;;;;;15.30;11.30;;;;;;;;;;5075931;28;20238;-58
2021/04/11 12:17:17;;;;;;;17.30;14.00;;;;;;;;;;5074855;28;20213;-51
2021/04/11 12:19:49;;;;;;;17.73;13.68;;;;;;;;;;5075482;28;20594;-58
2021/04/11 12:22:19;;;;;;;19.67;14.10;;;;;;;;;;5055893;28;20199;-55
2021/04/11 12:25:22;;;;;;;19.83;13.82;;;;;;;;;;5060919;28;20233;-49
2021/04/11 12:27:49;;;;;;;20.58;14.23;;;;;;;;;;5079452;28;20194;-56
2021/04/11 12:30:18;;;;;;;16.33;11.82;;;;;;;;;;5079107;28;20222;-55
2021/04/11 12:32:59;;;;;;;19.90;13.50;;;;;;;;;;5080137;28;20202;-48
2021/04/11 12:35:30;;;;;;;15.38;11.77;;;;;;;;;;5081250;28;20202;-50
2021/04/11 12:38:04;;;;;;;16.60;12.48;;;;;;;;;;5091866;28;20258;-48
2021/04/11 12:43:38;;;;;;;24.08;15.10;;;;;;;;;;5077769;28;20177;-45
2021/04/11 12:46:08;;;;;;;21.98;15.63;;;;;;;;;;5080108;28;20298;-50
2021/04/11 12:49:07;;;;;;;18.88;13.80;;;;;;;;;;5079775;28;20264;-56
2021/04/11 12:51:38;;;;;;;18.15;13.48;;;;;;;;;;5079072;28;20226;-49
2021/04/11 12:54:08;;;;;;;15.90;12.07;;;;;;;;;;5079363;28;20217;-51
2021/04/11 12:56:55;;;;;;;15.57;12.25;;;;;;;;;;5079144;28;20206;-58
2021/04/11 12:59:22;;;;;;;13.75;10.82;;;;;;;;;;5077078;28;20222;-58
2021/04/11 13:01:51;;;;;;;16.30;12.05;;;;;;;;;;5078950;28;20222;-49
2021/04/11 13:07:27;;;;;;;22.20;15.88;;;;;;;;;;5076800;28;20252;-52
2021/04/11 13:10:07;;;;;;;16.15;11.55;;;;;;;;;;5068651;28;20559;-54
2021/04/11 13:12:58;;;;;;;14.18;9.13;;;;;;;;;;5064704;28;20214;-52
2021/04/11 13:15:29;;;;;;;13.02;9.55;;;;;;;;;;5090371;28;20214;-53
2021/04/11 13:18:10;;;;;;;11.50;9.32;;;;;;;;;;5097639;28;20194;-55
2021/04/11 13:20:41;;;;;;;10.73;7.70;;;;;;;;;;5097270;28;20202;-57
2021/04/11 13:23:21;;;;;;;12.93;10.27;;;;;;;;;;5096901;28;20232;-54
2021/04/11 13:26:11;;;;;;;9.27;7.55;;;;;;;;;;5093336;28;20202;-55
2021/04/11 13:28:43;;;;;;;8.85;6.57;;;;;;;;;;5087417;28;20202;-48
2021/04/11 13:31:16;;;;;;;9.63;7.10;;;;;;;;;;5117783;28;20197;-54
2021/04/11 13:33:51;;;;;;;7.65;5.80;;;;;;;;;;5098862;28;20186;-54
2021/04/11 13:39:24;;;;;;;11.65;6.30;;;;;;;;;;5085338;28;20225;-51
2021/04/11 13:42:04;;;;;;;7.22;5.40;;;;;;;;;;5092873;28;20228;-52
2021/04/11 13:44:50;;;;;;;6.75;5.30;;;;;;;;;;5097208;28;20220;-48
2021/04/11 13:47:20;;;;;;;8.00;5.53;;;;;;;;;;5051648;28;806215;-52
2021/04/11 13:49:53;;;;;;;8.10;5.90;;;;;;;;;;5097804;28;20223;-46
2021/04/11 13:52:36;;;;;;;7.75;5.60;;;;;;;;;;5097739;28;20227;-54
2021/04/11 13:55:09;;;;;;;7.53;5.53;;;;;;;;;;5097972;28;20202;-52
2021/04/11 13:57:43;;;;;;;9.50;6.50;;;;;;;;;;5098105;28;20198;-52
2021/04/11 14:03:26;;;;;;;7.65;6.22;;;;;;;;;;5096923;28;20244;-50
2021/04/11 14:05:54;;;;;;;6.60;5.90;;;;;;;;;;5097043;28;20178;-55
2021/04/11 14:08:36;;;;;;;9.25;5.82;;;;;;;;;;5097588;28;20213;-49
2021/04/11 14:11:12;;;;;;;12.00;6.38;;;;;;;;;;5097706;28;20361;-53
2021/04/11 14:13:41;;;;;;;9.93;6.90;;;;;;;;;;5097951;28;20204;-52
2021/04/11 14:19:14;;;;;;;7.22;6.00;;;;;;;;;;5095180;28;20255;-53
2021/04/11 14:21:42;;;;;;;9.43;7.15;;;;;;;;;;5097259;28;20210;-44
2021/04/11 14:24:13;;;;;;;9.07;5.72;;;;;;;;;;5096637;28;20202;-52
2021/04/11 14:26:47;;;;;;;7.63;4.97;;;;;;;;;;5096666;28;20209;-53
2021/04/11 14:29:19;;;;;;;7.25;4.82;;;;;;;;;;5097831;28;20178;-48
2021/04/11 14:31:49;;;;;;;8.55;6.28;;;;;;;;;;5097475;28;20233;-48
2021/04/11 14:34:23;;;;;;;7.35;4.93;;;;;;;;;;5096732;28;20185;-50
2021/04/11 14:37:14;;;;;;;9.80;6.72;;;;;;;;;;5097641;28;20270;-50
2021/04/11 14:39:43;;;;;;;8.10;6.07;;;;;;;;;;5076820;28;20237;-53
2021/04/11 14:42:19;;;;;;;11.35;7.93;;;;;;;;;;5077429;28;20223;-47
2021/04/11 14:44:54;;;;;;;11.45;9.00;;;;;;;;;;5077136;28;20206;-49
2021/04/11 14:47:25;;;;;;;17.17;11.57;;;;;;;;;;5090669;28;20227;-51
2021/04/11 14:49:53;;;;;;;15.45;10.90;;;;;;;;;;5097275;28;20178;-50
2021/04/11 14:52:39;;;;;;;15.50;11.88;;;;;;;;;;5095528;28;20194;-55
2021/04/11 14:55:08;;;;;;;15.60;12.02;;;;;;;;;;5096970;28;20182;-49
2021/04/11 14:57:42;;;;;;;20.15;11.73;;;;;;;;;;5097203;28;20205;-54
2021/04/11 15:03:42;;;;;;;12.32;8.60;;;;;;;;;;5093794;28;20267;-54
2021/04/11 15:06:12;;;;;;;14.43;7.72;;;;;;;;;;5085618;28;20246;-61
2021/04/11 15:08:42;;;;;;;8.90;5.35;;;;;;;;;;5096736;28;20198;-52
2021/04/11 15:11:31;;;;;;;12.68;7.28;;;;;;;;;;5096308;28;20233;-50
2021/04/11 15:14:01;;;;;;;9.52;6.22;;;;;;;;;;5093980;28;20262;-52
2021/04/11 15:16:32;;;;;;;10.23;6.80;;;;;;;;;;5076552;28;20199;-60
2021/04/11 15:22:05;;;;;;;12.73;9.05;;;;;;;;;;5076526;28;20499;-54
2021/04/11 15:24:36;;;;;;;17.75;8.80;;;;;;;;;;5076421;28;20203;-59
2021/04/11 15:27:27;;;;;;;17.60;10.45;;;;;;;;;;5077776;28;20202;-56
2021/04/11 15:30:00;;;;;;;14.77;9.60;;;;;;;;;;5095765;28;20223;-60
2021/04/11 15:32:29;;;;;;;14.68;9.27;;;;;;;;;;5094756;28;20217;-53
2021/04/11 15:35:33;;;;;;;16.05;9.02;;;;;;;;;;5096884;28;20190;-55
2021/04/11 15:38:02;;;;;;;14.13;9.85;;;;;;;;;;5094294;28;20228;-52
2021/04/11 15:40:38;;;;;;;16.70;9.65;;;;;;;;;;5095920;28;20190;-50
2021/04/11 15:43:30;;;;;;;14.70;9.23;;;;;;;;;;5095992;28;20263;-48
2021/04/11 15:46:09;;;;;;;14.35;8.10;;;;;;;;;;5093973;28;20238;-49
2021/04/11 15:48:40;;;;;;;15.35;9.55;;;;;;;;;;5095490;28;20205;-53
2021/04/11 15:51:15;;;;;;;16.63;9.98;;;;;;;;;;5078469;28;20218;-52
2021/04/11 15:54:02;;;;;;;16.42;11.30;;;;;;;;;;5096154;28;20219;-50
2021/04/11 15:56:41;;;;;;;16.40;11.25;;;;;;;;;;5096067;28;20178;-52
2021/04/11 15:59:11;;;;;;;18.13;10.60;;;;;;;;;;5095536;28;20206;-53
2021/04/11 16:01:44;;;;;;;15.05;10.05;;;;;;;;;;5096034;28;20219;-48
2021/04/11 16:07:20;;;;;;;14.02;9.05;;;;;;;;;;5095350;28;20188;-58
2021/04/11 16:10:18;;;;;;;10.90;8.93;;;;;;;;;;5096472;28;20201;-56
2021/04/11 16:13:03;;;;;;;17.52;8.68;;;;;;;;;;5088113;28;20194;-49
2021/04/11 16:15:34;;;;;;;16.60;9.38;;;;;;;;;;5085821;28;20261;-49